Ocean Seagull — 3FSU4 — position and weather

sailwx.info

Track history (hours):
 
Tides and Currents Weather Stations Pressure Air Temp Water Temp Dewpoint Dewpoint Depression Visibility Wind Speed Wind Dir Waves Ship Positions

Ocean Seagull

Last reported at 2018-Apr-18 16:20 UTC. Time now 2018-Apr-21 02:07 UTC.
Position N 34°08' E 132°50'.

Length 119 m; draft 4.5 m.

Type: Ship. MMSI: 351954000.

Date/timePositionNaut miles runAvg speedWind from/ knotsBaromVisibWave heightAir tempDewpointWater temp
2018-Apr-18 16:20N 34°08' E 132°50'514.3
2018-Apr-18 16:00N 34°07' E 132°45'714.7
2018-Apr-18 15:31N 34°02' E 132°38'913.6
2018-Apr-18 14:52N 34°01' E 132°28'513.4
2018-Apr-18 14:30N 34°05' E 132°24'713.3
2018-Apr-18 13:59N 34°12' E 132°20'613.6
2018-Apr-18 13:31N 34°18' E 132°22'5 9.4
2018-Apr-18 13:01N 34°21' E 132°26'0 0.3
2018-Apr-18 12:30N 34°21' E 132°26'0 0.0
2018-Apr-18 12:00N 34°21' E 132°26'0 0.0
2018-Apr-18 11:30N 34°21' E 132°26'0 0.0
2018-Apr-18 11:00N 34°21' E 132°26'0 0.0
2018-Apr-18 10:30N 34°21' E 132°26'0 0.0
2018-Apr-18 10:00N 34°21' E 132°26'0 0.0
2018-Apr-18 09:30N 34°21' E 132°26'0 0.0
2018-Apr-18 09:00N 34°21' E 132°26'0 0.0
2018-Apr-18 08:30N 34°21' E 132°26'0 0.0
2018-Apr-18 08:00N 34°21' E 132°26'0 0.3
2018-Apr-18 07:30N 34°21' E 132°26'4 7.0
2018-Apr-18 07:00N 34°19' E 132°23'5 9.1
2018-Apr-18 06:30N 34°14' E 132°21'612.1
2018-Apr-18 06:00N 34°08' E 132°22'713.5
2018-Apr-18 05:30N 34°03' E 132°26'612.5
2018-Apr-18 05:00N 34°01' E 132°34'713.1
2018-Apr-18 04:31N 34°04' E 132°40'7712.7
2018-Apr-17 22:28N 34°26' E 134°09'714.3
2018-Apr-17 22:01N 34°24' E 134°17'713.7
2018-Apr-17 21:30N 34°26' E 134°25'714.0
2018-Apr-17 21:00N 34°29' E 134°33'713.7
2018-Apr-17 20:30N 34°31' E 134°41'713.4
2018-Apr-17 20:00N 34°34' E 134°48'612.3
2018-Apr-17 19:30N 34°36' E 134°55'510.3
2018-Apr-17 19:00N 34°37' E 135°01'5 9.1
2018-Apr-17 18:30N 34°34' E 135°05'713.5
2018-Apr-17 18:00N 34°27' E 135°03'613.0
2018-Apr-17 17:30N 34°21' E 135°01'612.1
2018-Apr-17 17:01N 34°15' E 134°59'713.4
2018-Apr-17 16:30N 34°08' E 134°59'713.7
2018-Apr-17 16:00N 34°01' E 134°59'713.4
2018-Apr-17 15:30N 33°55' E 134°59'611.4
2018-Apr-17 15:00N 33°49' E 135°01'1813.4
2018-Apr-17 13:40N 33°36' E 135°16'414.0
2018-Apr-17 13:23N 33°33' E 135°19'614.4
2018-Apr-17 12:59N 33°30' E 135°25'6512.2
2018-Apr-17 07:42N 33°55' E 136°37'613.7
2018-Apr-17 07:14N 33°59' E 136°43'4010.8
2018-Apr-17 03:29N 34°39' E 136°52'713.9
2018-Apr-17 03:00N 34°44' E 136°48'714.1
2018-Apr-17 02:30N 34°51' E 136°46'713.6
2018-Apr-17 02:00N 34°58' E 136°48'510.2
2018-Apr-17 01:30N 35°03' E 136°50'0 0.2
2018-Apr-17 01:00N 35°03' E 136°50'0 0.0
2018-Apr-17 00:30N 35°03' E 136°50'0 0.0
2018-Apr-17 00:00N 35°03' E 136°50'0 0.2
2018-Apr-16 23:30N 35°03' E 136°50'2 3.2
2018-Apr-16 23:00N 35°01' E 136°50'611.9
2018-Apr-16 22:30N 34°56' E 136°47'611.2
2018-Apr-16 22:00N 34°51' E 136°46'1 1.8
2018-Apr-16 21:30N 34°51' E 136°45'1 1.6
2018-Apr-16 21:00N 34°51' E 136°46'3 6.0
2018-Apr-16 20:30N 34°48' E 136°46'713.5
2018-Apr-16 20:00N 34°42' E 136°50'713.9
2018-Apr-16 19:30N 34°37' E 136°56'713.4
2018-Apr-16 19:00N 34°33' E 137°02'813.0
2018-Apr-16 18:22N 34°30' E 137°11'613.4
2018-Apr-16 17:56N 34°30' E 137°18'1713.5
2018-Apr-16 16:38N 34°30' E 137°39'313.4
2018-Apr-16 16:26N 34°30' E 137°42'813.5
2018-Apr-16 15:52N 34°30' E 137°52'513.5
2018-Apr-16 15:29N 34°31' E 137°58'713.3
2018-Apr-16 15:00N 34°31' E 138°06'713.2
2018-Apr-16 14:27N 34°31' E 138°15'613.1
2018-Apr-16 13:58N 34°31' E 138°22'613.4
2018-Apr-16 13:30N 34°31' E 138°30'713.5
2018-Apr-16 12:58N 34°32' E 138°39'613.7
2018-Apr-16 12:30N 34°32' E 138°46'613.3
2018-Apr-16 12:00N 34°32' E 138°54'611.8
2018-Apr-16 11:30N 34°35' E 139°01'713.9
2018-Apr-16 10:59N 34°40' E 139°07'713.6
2018-Apr-16 10:28N 34°45' E 139°12'613.7
2018-Apr-16 10:00N 34°50' E 139°17'713.1
2018-Apr-16 09:30N 34°54' E 139°24'712.8
2018-Apr-16 08:57N 34°58' E 139°31'612.6
2018-Apr-16 08:30N 35°02' E 139°36'713.6
2018-Apr-16 08:00N 35°06' E 139°42'713.6
2018-Apr-16 07:30N 35°12' E 139°46'612.4
2018-Apr-16 07:00N 35°18' E 139°44'612.1
2018-Apr-16 06:30N 35°24' E 139°43'713.1
2018-Apr-16 06:00N 35°28' E 139°49'510.8
2018-Apr-16 05:31N 35°34' E 139°49'4 6.6
2018-Apr-16 04:58N 35°36' E 139°46'0 0.0
2018-Apr-16 04:16N 35°36' E 139°46'0 0.0
2018-Apr-16 03:58N 35°36' E 139°46'0 0.0
2018-Apr-16 03:25N 35°36' E 139°46'0 0.0
2018-Apr-16 02:58N 35°36' E 139°46'0 0.0
2018-Apr-16 02:28N 35°36' E 139°46'0 0.0
2018-Apr-16 01:58N 35°36' E 139°46'0 0.0
2018-Apr-16 01:28N 35°36' E 139°46'0 0.0
2018-Apr-16 00:58N 35°36' E 139°46'0 0.0
2018-Apr-16 00:28N 35°36' E 139°46'0 0.0
2018-Apr-15 23:58N 35°36' E 139°46'0 0.0
2018-Apr-15 23:25N 35°36' E 139°46'0 0.5
2018-Apr-15 23:00N 35°36' E 139°46'2 3.8
2018-Apr-15 22:30N 35°35' E 139°48'4 8.3
2018-Apr-15 22:01N 35°32' E 139°52'5 9.5
2018-Apr-15 21:30N 35°28' E 139°50'612.4
2018-Apr-15 21:00N 35°23' E 139°46'510.7
2018-Apr-15 20:30N 35°17' E 139°45'612.2
2018-Apr-15 20:00N 35°11' E 139°47'4 8.7
2018-Apr-15 19:30N 35°07' E 139°45'4 7.5
2018-Apr-15 19:00N 35°04' E 139°44'4 7.6
2018-Apr-15 18:29N 34°60' E 139°43'4 8.0
2018-Apr-15 18:00N 34°56' E 139°41'4 7.8
2018-Apr-15 17:27N 34°52' E 139°42'4 8.0
2018-Apr-15 16:58N 34°48' E 139°43'4 8.3
2018-Apr-15 16:30N 34°45' E 139°45'15 8.9
2018-Apr-15 14:47N 34°31' E 139°55'3 8.2
2018-Apr-15 14:24N 34°29' E 139°58'  
Track history (hours):
 
Tides and Currents Weather Stations Pressure Air Temp Water Temp Dewpoint Dewpoint Depression Visibility Wind Speed Wind Dir Waves Ship Positions

Ocean Seagull

Last reported at 2018-Apr-18 16:20 UTC. Time now 2018-Apr-21 02:08 UTC.
Position N 34°08' E 132°50'.

Length 119 m; draft 4.5 m.

Type: Ship. MMSI: 351954000.

Date/timePositionNaut miles runAvg speedWind from/ knotsBaromVisibWave heightAir tempDewpointWater temp
2018-Apr-18 16:20N 34°08' E 132°50'514.3
2018-Apr-18 16:00N 34°07' E 132°45'714.7
2018-Apr-18 15:31N 34°02' E 132°38'913.6
2018-Apr-18 14:52N 34°01' E 132°28'513.4
2018-Apr-18 14:30N 34°05' E 132°24'713.3
2018-Apr-18 13:59N 34°12' E 132°20'613.6
2018-Apr-18 13:31N 34°18' E 132°22'5 9.4
2018-Apr-18 13:01N 34°21' E 132°26'0 0.3
2018-Apr-18 12:30N 34°21' E 132°26'0 0.0
2018-Apr-18 12:00N 34°21' E 132°26'0 0.0
2018-Apr-18 11:30N 34°21' E 132°26'0 0.0
2018-Apr-18 11:00N 34°21' E 132°26'0 0.0
2018-Apr-18 10:30N 34°21' E 132°26'0 0.0
2018-Apr-18 10:00N 34°21' E 132°26'0 0.0
2018-Apr-18 09:30N 34°21' E 132°26'0 0.0
2018-Apr-18 09:00N 34°21' E 132°26'0 0.0
2018-Apr-18 08:30N 34°21' E 132°26'0 0.0
2018-Apr-18 08:00N 34°21' E 132°26'0 0.3
2018-Apr-18 07:30N 34°21' E 132°26'4 7.0
2018-Apr-18 07:00N 34°19' E 132°23'5 9.1
2018-Apr-18 06:30N 34°14' E 132°21'612.1
2018-Apr-18 06:00N 34°08' E 132°22'713.5
2018-Apr-18 05:30N 34°03' E 132°26'612.5
2018-Apr-18 05:00N 34°01' E 132°34'713.1
2018-Apr-18 04:31N 34°04' E 132°40'7712.7
2018-Apr-17 22:28N 34°26' E 134°09'714.3
2018-Apr-17 22:01N 34°24' E 134°17'713.7
2018-Apr-17 21:30N 34°26' E 134°25'714.0
2018-Apr-17 21:00N 34°29' E 134°33'713.7
2018-Apr-17 20:30N 34°31' E 134°41'713.4
2018-Apr-17 20:00N 34°34' E 134°48'612.3
2018-Apr-17 19:30N 34°36' E 134°55'510.3
2018-Apr-17 19:00N 34°37' E 135°01'5 9.1
2018-Apr-17 18:30N 34°34' E 135°05'713.5
2018-Apr-17 18:00N 34°27' E 135°03'613.0
2018-Apr-17 17:30N 34°21' E 135°01'612.1
2018-Apr-17 17:01N 34°15' E 134°59'713.4
2018-Apr-17 16:30N 34°08' E 134°59'713.7
2018-Apr-17 16:00N 34°01' E 134°59'713.4
2018-Apr-17 15:30N 33°55' E 134°59'611.4
2018-Apr-17 15:00N 33°49' E 135°01'1813.4
2018-Apr-17 13:40N 33°36' E 135°16'414.0
2018-Apr-17 13:23N 33°33' E 135°19'614.4
2018-Apr-17 12:59N 33°30' E 135°25'6512.2
2018-Apr-17 07:42N 33°55' E 136°37'613.7
2018-Apr-17 07:14N 33°59' E 136°43'4010.8
2018-Apr-17 03:29N 34°39' E 136°52'713.9
2018-Apr-17 03:00N 34°44' E 136°48'714.1
2018-Apr-17 02:30N 34°51' E 136°46'713.6
2018-Apr-17 02:00N 34°58' E 136°48'510.2
2018-Apr-17 01:30N 35°03' E 136°50'0 0.2
2018-Apr-17 01:00N 35°03' E 136°50'0 0.0
2018-Apr-17 00:30N 35°03' E 136°50'0 0.0
2018-Apr-17 00:00N 35°03' E 136°50'0 0.2
2018-Apr-16 23:30N 35°03' E 136°50'2 3.2
2018-Apr-16 23:00N 35°01' E 136°50'611.9
2018-Apr-16 22:30N 34°56' E 136°47'611.2
2018-Apr-16 22:00N 34°51' E 136°46'1 1.8
2018-Apr-16 21:30N 34°51' E 136°45'1 1.6
2018-Apr-16 21:00N 34°51' E 136°46'3 6.0
2018-Apr-16 20:30N 34°48' E 136°46'713.5
2018-Apr-16 20:00N 34°42' E 136°50'713.9
2018-Apr-16 19:30N 34°37' E 136°56'713.4
2018-Apr-16 19:00N 34°33' E 137°02'813.0
2018-Apr-16 18:22N 34°30' E 137°11'613.4
2018-Apr-16 17:56N 34°30' E 137°18'1713.5
2018-Apr-16 16:38N 34°30' E 137°39'313.4
2018-Apr-16 16:26N 34°30' E 137°42'813.5
2018-Apr-16 15:52N 34°30' E 137°52'513.5
2018-Apr-16 15:29N 34°31' E 137°58'713.3
2018-Apr-16 15:00N 34°31' E 138°06'713.2
2018-Apr-16 14:27N 34°31' E 138°15'613.1
2018-Apr-16 13:58N 34°31' E 138°22'613.4
2018-Apr-16 13:30N 34°31' E 138°30'713.5
2018-Apr-16 12:58N 34°32' E 138°39'613.7
2018-Apr-16 12:30N 34°32' E 138°46'613.3
2018-Apr-16 12:00N 34°32' E 138°54'611.8
2018-Apr-16 11:30N 34°35' E 139°01'713.9
2018-Apr-16 10:59N 34°40' E 139°07'713.6
2018-Apr-16 10:28N 34°45' E 139°12'613.7
2018-Apr-16 10:00N 34°50' E 139°17'713.1
2018-Apr-16 09:30N 34°54' E 139°24'712.8
2018-Apr-16 08:57N 34°58' E 139°31'612.6
2018-Apr-16 08:30N 35°02' E 139°36'713.6
2018-Apr-16 08:00N 35°06' E 139°42'713.6
2018-Apr-16 07:30N 35°12' E 139°46'612.4
2018-Apr-16 07:00N 35°18' E 139°44'612.1
2018-Apr-16 06:30N 35°24' E 139°43'713.1
2018-Apr-16 06:00N 35°28' E 139°49'510.8
2018-Apr-16 05:31N 35°34' E 139°49'4 6.6
2018-Apr-16 04:58N 35°36' E 139°46'0 0.0
2018-Apr-16 04:16N 35°36' E 139°46'0 0.0
2018-Apr-16 03:58N 35°36' E 139°46'0 0.0
2018-Apr-16 03:25N 35°36' E 139°46'0 0.0
2018-Apr-16 02:58N 35°36' E 139°46'0 0.0
2018-Apr-16 02:28N 35°36' E 139°46'0 0.0
2018-Apr-16 01:58N 35°36' E 139°46'0 0.0
2018-Apr-16 01:28N 35°36' E 139°46'0 0.0
2018-Apr-16 00:58N 35°36' E 139°46'0 0.0
2018-Apr-16 00:28N 35°36' E 139°46'0 0.0
2018-Apr-15 23:58N 35°36' E 139°46'0 0.0
2018-Apr-15 23:25N 35°36' E 139°46'0 0.5
2018-Apr-15 23:00N 35°36' E 139°46'2 3.8
2018-Apr-15 22:30N 35°35' E 139°48'4 8.3
2018-Apr-15 22:01N 35°32' E 139°52'5 9.5
2018-Apr-15 21:30N 35°28' E 139°50'612.4
2018-Apr-15 21:00N 35°23' E 139°46'510.7
2018-Apr-15 20:30N 35°17' E 139°45'612.2
2018-Apr-15 20:00N 35°11' E 139°47'4 8.7
2018-Apr-15 19:30N 35°07' E 139°45'4 7.5
2018-Apr-15 19:00N 35°04' E 139°44'4 7.6
2018-Apr-15 18:29N 34°60' E 139°43'4 8.0
2018-Apr-15 18:00N 34°56' E 139°41'4 7.8
2018-Apr-15 17:27N 34°52' E 139°42'4 8.0
2018-Apr-15 16:58N 34°48' E 139°43'4 8.3
2018-Apr-15 16:30N 34°45' E 139°45'15 8.9
2018-Apr-15 14:47N 34°31' E 139°55'3 8.2
2018-Apr-15 14:24N 34°29' E 139°58'  

Dump ship's entire track history